sensor_id;sensor_type;location;lat;lon;timestamp;pressure;altitude;pressure_sealevel;temperature;humidity
69593;BME280;56796;50.122;14.468;2023-06-04T00:11:02;982.51;;;12.04;57.54
69593;BME280;56796;50.122;14.468;2023-06-04T00:30:27;982.43;;;11.71;58.94
69593;BME280;56796;50.122;14.468;2023-06-04T00:49:53;982.27;;;11.52;59.82
69593;BME280;56796;50.122;14.468;2023-06-04T01:09:18;982.3;;;11.36;60.58
69593;BME280;56796;50.122;14.468;2023-06-04T01:28:44;982.21;;;11.31;60.64
69593;BME280;56796;50.122;14.468;2023-06-04T01:48:10;982.17;;;10.99;61.44
69593;BME280;56796;50.122;14.468;2023-06-04T02:07:35;982.07;;;10.83;62.27
69593;BME280;56796;50.122;14.468;2023-06-04T02:27:02;982.07;;;10.75;62.42
69593;BME280;56796;50.122;14.468;2023-06-04T02:46:27;982.26;;;10.6;62.98
69593;BME280;56796;50.122;14.468;2023-06-04T03:05:53;982.4;;;10.5;63.18
69593;BME280;56796;50.122;14.468;2023-06-04T03:25:19;982.56;;;10.55;62.24
69593;BME280;56796;50.122;14.468;2023-06-04T03:44:47;982.73;;;10.9;60.92
69593;BME280;56796;50.122;14.468;2023-06-04T04:04:15;982.69;;;11.32;59.96
69593;BME280;56796;50.122;14.468;2023-06-04T04:23:44;982.72;;;11.55;60.1
69593;BME280;56796;50.122;14.468;2023-06-04T04:43:10;982.66;;;12.53;58.67
69593;BME280;56796;50.122;14.468;2023-06-04T05:02:40;982.71;;;13.55;56.34
69593;BME280;56796;50.122;14.468;2023-06-04T05:22:09;982.84;;;14.44;53.33
69593;BME280;56796;50.122;14.468;2023-06-04T05:41:38;982.98;;;14.84;53.33
69593;BME280;56796;50.122;14.468;2023-06-04T06:01:07;983.07;;;15.1;51.64
69593;BME280;56796;50.122;14.468;2023-06-04T06:20:35;983.16;;;15.53;51.05
69593;BME280;56796;50.122;14.468;2023-06-04T06:40:05;983.32;;;16.78;49.45
69593;BME280;56796;50.122;14.468;2023-06-04T06:59:39;983.37;;;18.07;46.96
69593;BME280;56796;50.122;14.468;2023-06-04T07:19:12;983.47;;;19.08;44.02
69593;BME280;56796;50.122;14.468;2023-06-04T07:38:45;983.48;;;19.5;42.55
69593;BME280;56796;50.122;14.468;2023-06-04T07:58:16;983.41;;;20.85;39.64
69593;BME280;56796;50.122;14.468;2023-06-04T08:17:47;983.35;;;21.93;38.46
69593;BME280;56796;50.122;14.468;2023-06-04T08:37:17;983.4;;;21.7;36.98
69593;BME280;56796;50.122;14.468;2023-06-04T08:56:45;983.36;;;22.55;36.77
69593;BME280;56796;50.122;14.468;2023-06-04T09:16:15;983.4;;;23.85;34.7
69593;BME280;56796;50.122;14.468;2023-06-04T09:55:16;983.4;;;24.78;32.76
69593;BME280;56796;50.122;14.468;2023-06-04T10:14:47;983.3;;;25.03;31.55
69593;BME280;56796;50.122;14.468;2023-06-04T10:34:16;983.18;;;24.65;31.22
69593;BME280;56796;50.122;14.468;2023-06-04T10:53:36;983.13;;;25.97;29.33
69593;BME280;56796;50.122;14.468;2023-06-04T11:13:03;983.03;;;24.93;30.93
69593;BME280;56796;50.122;14.468;2023-06-04T11:32:33;983.02;;;26.2;29.07
69593;BME280;56796;50.122;14.468;2023-06-04T11:51:54;982.94;;;25.55;29.22
69593;BME280;56796;50.122;14.468;2023-06-04T12:11:25;982.85;;;25.91;29.4
69593;BME280;56796;50.122;14.468;2023-06-04T12:30:42;982.71;;;26.28;29.03
69593;BME280;56796;50.122;14.468;2023-06-04T12:50:13;982.63;;;26.07;28.26
69593;BME280;56796;50.122;14.468;2023-06-04T13:09:32;982.56;;;27.26;27.22
69593;BME280;56796;50.122;14.468;2023-06-04T13:29:01;982.53;;;27.4;26.53
69593;BME280;56796;50.122;14.468;2023-06-04T13:48:27;982.38;;;26.5;24.92
69593;BME280;56796;50.122;14.468;2023-06-04T14:07:55;982.25;;;26.43;23.75
69593;BME280;56796;50.122;14.468;2023-06-04T14:27:12;982.16;;;26.11;24.19
69593;BME280;56796;50.122;14.468;2023-06-04T14:46:33;982.11;;;25.6;26.8
69593;BME280;56796;50.122;14.468;2023-06-04T15:06:03;981.93;;;24.97;26.69
69593;BME280;56796;50.122;14.468;2023-06-04T15:25:21;981.87;;;25.06;27.59
69593;BME280;56796;50.122;14.468;2023-06-04T15:44:50;981.86;;;24.59;27.19
69593;BME280;56796;50.122;14.468;2023-06-04T16:04:08;981.86;;;24.2;28.29
69593;BME280;56796;50.122;14.468;2023-06-04T16:23:33;981.83;;;24.07;28.63
69593;BME280;56796;50.122;14.468;2023-06-04T16:42:59;981.74;;;23.63;29.07
69593;BME280;56796;50.122;14.468;2023-06-04T17:02:25;981.7;;;23.01;29.92
69593;BME280;56796;50.122;14.468;2023-06-04T17:21:50;981.72;;;22.53;30.44
69593;BME280;56796;50.122;14.468;2023-06-04T17:41:16;981.77;;;22.3;30.61
69593;BME280;56796;50.122;14.468;2023-06-04T18:00:42;981.81;;;22.04;31.15
69593;BME280;56796;50.122;14.468;2023-06-04T18:20:08;981.72;;;21.62;31.76
69593;BME280;56796;50.122;14.468;2023-06-04T18:39:33;981.78;;;21.29;32.1
69593;BME280;56796;50.122;14.468;2023-06-04T18:58:58;981.85;;;20.85;33.66
69593;BME280;56796;50.122;14.468;2023-06-04T19:18:24;982.18;;;19.74;39.1
69593;BME280;56796;50.122;14.468;2023-06-04T19:37:48;982.3;;;19.25;41.94
69593;BME280;56796;50.122;14.468;2023-06-04T19:57:13;982.36;;;18.82;43.45
69593;BME280;56796;50.122;14.468;2023-06-04T20:16:38;982.43;;;18.39;44.75
69593;BME280;56796;50.122;14.468;2023-06-04T20:36:04;982.53;;;18.04;45.54
69593;BME280;56796;50.122;14.468;2023-06-04T20:55:30;982.55;;;17.74;46.13
69593;BME280;56796;50.122;14.468;2023-06-04T21:14:58;982.77;;;17.45;47.39
69593;BME280;56796;50.122;14.468;2023-06-04T21:34:17;982.81;;;17.31;48.52
69593;BME280;56796;50.122;14.468;2023-06-04T21:53:43;982.92;;;17.12;49.32
69593;BME280;56796;50.122;14.468;2023-06-04T22:13:10;982.91;;;17.01;50.12
69593;BME280;56796;50.122;14.468;2023-06-04T22:32:36;982.92;;;16.77;51.15
69593;BME280;56796;50.122;14.468;2023-06-04T22:52:02;982.78;;;16.56;52.05
69593;BME280;56796;50.122;14.468;2023-06-04T23:11:28;982.67;;;16.33;52.95
69593;BME280;56796;50.122;14.468;2023-06-04T23:30:53;982.71;;;16.15;53.69
69593;BME280;56796;50.122;14.468;2023-06-04T23:50:20;982.5;;;15.96;54.34
